<?xml version="1.0" encoding="UTF-8" standalone="no" ?>
<gpx xmlns="http://www.topografix.com/GPX/1/1" xmlns:xsi="http://www.w3.org/2001/XMLSchema-instance" xsi:schemaLocation="http://www.topografix.com/GPX/1/1 http://www.topografix.com/GPX/1/1/gpx.xsd" version="1.1" creator="VisuGPX - https://www.visugpx.com">
  <metadata>
    <name>Tressan le pouget</name>
    <desc><![CDATA[Randonnée, Tressan le pouget]]></desc>
  </metadata>
  <trk>
    <name><![CDATA[track]]></name>
    <trkseg>
      <trkpt lat="43.57416" lon="3.49614">
        <ele>87</ele>
        <time>2005-01-16T09:19:07Z</time>
      </trkpt>
      <trkpt lat="43.57424" lon="3.49615">
        <ele>86.4</ele>
        <time>2005-01-16T09:20:09Z</time>
      </trkpt>
      <trkpt lat="43.57444" lon="3.49599">
        <ele>85.5</ele>
        <time>2005-01-16T09:21:09Z</time>
      </trkpt>
      <trkpt lat="43.57424" lon="3.49611">
        <ele>86.5</ele>
        <time>2005-01-16T09:22:10Z</time>
      </trkpt>
      <trkpt lat="43.57426" lon="3.4961">
        <ele>86.4</ele>
        <time>2005-01-16T09:23:11Z</time>
      </trkpt>
      <trkpt lat="43.57426" lon="3.4961">
        <ele>86.4</ele>
        <time>2005-01-16T09:24:12Z</time>
      </trkpt>
      <trkpt lat="43.57426" lon="3.49608">
        <ele>86.5</ele>
        <time>2005-01-16T09:25:12Z</time>
      </trkpt>
      <trkpt lat="43.57426" lon="3.49608">
        <ele>86.5</ele>
        <time>2005-01-16T09:26:13Z</time>
      </trkpt>
      <trkpt lat="43.57425" lon="3.4961">
        <ele>86.5</ele>
        <time>2005-01-16T09:27:14Z</time>
      </trkpt>
      <trkpt lat="43.57426" lon="3.4961">
        <ele>86.4</ele>
        <time>2005-01-16T09:28:14Z</time>
      </trkpt>
      <trkpt lat="43.57426" lon="3.49608">
        <ele>86.5</ele>
        <time>2005-01-16T09:29:15Z</time>
      </trkpt>
      <trkpt lat="43.57424" lon="3.4961">
        <ele>86.5</ele>
        <time>2005-01-16T09:30:16Z</time>
      </trkpt>
      <trkpt lat="43.57426" lon="3.49608">
        <ele>86.5</ele>
        <time>2005-01-16T09:31:17Z</time>
      </trkpt>
      <trkpt lat="43.57425" lon="3.49611">
        <ele>86.4</ele>
        <time>2005-01-16T09:32:17Z</time>
      </trkpt>
      <trkpt lat="43.57424" lon="3.49609">
        <ele>86.6</ele>
        <time>2005-01-16T09:33:18Z</time>
      </trkpt>
      <trkpt lat="43.57421" lon="3.49616">
        <ele>86.6</ele>
        <time>2005-01-16T09:34:18Z</time>
      </trkpt>
      <trkpt lat="43.57418" lon="3.49617">
        <ele>86.9</ele>
        <time>2005-01-16T09:35:19Z</time>
      </trkpt>
      <trkpt lat="43.57418" lon="3.49614">
        <ele>86.9</ele>
        <time>2005-01-16T09:36:19Z</time>
      </trkpt>
      <trkpt lat="43.5742" lon="3.49616">
        <ele>86.7</ele>
        <time>2005-01-16T09:37:20Z</time>
      </trkpt>
      <trkpt lat="43.5742" lon="3.49617">
        <ele>86.7</ele>
        <time>2005-01-16T09:38:21Z</time>
      </trkpt>
      <trkpt lat="43.5743" lon="3.49615">
        <ele>85.9</ele>
        <time>2005-01-16T09:39:22Z</time>
      </trkpt>
      <trkpt lat="43.57459" lon="3.49522">
        <ele>86.9</ele>
        <time>2005-01-16T09:40:23Z</time>
      </trkpt>
      <trkpt lat="43.57456" lon="3.49414">
        <ele>88.2</ele>
        <time>2005-01-16T09:41:26Z</time>
      </trkpt>
      <trkpt lat="43.57484" lon="3.49372">
        <ele>80.7</ele>
        <time>2005-01-16T09:42:27Z</time>
      </trkpt>
      <trkpt lat="43.57503" lon="3.49402">
        <ele>77.3</ele>
        <time>2005-01-16T09:43:28Z</time>
      </trkpt>
      <trkpt lat="43.5751" lon="3.49464">
        <ele>72.4</ele>
        <time>2005-01-16T09:44:29Z</time>
      </trkpt>
      <trkpt lat="43.57523" lon="3.49376">
        <ele>69.9</ele>
        <time>2005-01-16T09:45:29Z</time>
      </trkpt>
      <trkpt lat="43.57539" lon="3.49409">
        <ele>62.6</ele>
        <time>2005-01-16T09:46:29Z</time>
      </trkpt>
      <trkpt lat="43.57542" lon="3.49474">
        <ele>60.9</ele>
        <time>2005-01-16T09:47:30Z</time>
      </trkpt>
      <trkpt lat="43.5756" lon="3.49566">
        <ele>60</ele>
        <time>2005-01-16T09:48:31Z</time>
      </trkpt>
      <trkpt lat="43.57628" lon="3.49605">
        <ele>55.9</ele>
        <time>2005-01-16T09:49:31Z</time>
      </trkpt>
      <trkpt lat="43.57688" lon="3.49589">
        <ele>52.4</ele>
        <time>2005-01-16T09:50:31Z</time>
      </trkpt>
      <trkpt lat="43.57757" lon="3.49552">
        <ele>48.7</ele>
        <time>2005-01-16T09:51:32Z</time>
      </trkpt>
      <trkpt lat="43.57822" lon="3.49566">
        <ele>49.2</ele>
        <time>2005-01-16T09:52:32Z</time>
      </trkpt>
      <trkpt lat="43.57884" lon="3.49626">
        <ele>54.9</ele>
        <time>2005-01-16T09:53:33Z</time>
      </trkpt>
      <trkpt lat="43.57927" lon="3.49701">
        <ele>55.1</ele>
        <time>2005-01-16T09:54:34Z</time>
      </trkpt>
      <trkpt lat="43.57989" lon="3.49763">
        <ele>56.1</ele>
        <time>2005-01-16T09:55:34Z</time>
      </trkpt>
      <trkpt lat="43.58009" lon="3.49827">
        <ele>57.5</ele>
        <time>2005-01-16T09:56:35Z</time>
      </trkpt>
      <trkpt lat="43.58068" lon="3.49881">
        <ele>57.1</ele>
        <time>2005-01-16T09:57:35Z</time>
      </trkpt>
      <trkpt lat="43.58124" lon="3.49944">
        <ele>58</ele>
        <time>2005-01-16T09:58:35Z</time>
      </trkpt>
      <trkpt lat="43.58185" lon="3.49994">
        <ele>58.7</ele>
        <time>2005-01-16T09:59:36Z</time>
      </trkpt>
      <trkpt lat="43.5825" lon="3.5004">
        <ele>58.9</ele>
        <time>2005-01-16T10:00:37Z</time>
      </trkpt>
      <trkpt lat="43.58321" lon="3.50085">
        <ele>59.5</ele>
        <time>2005-01-16T10:01:37Z</time>
      </trkpt>
      <trkpt lat="43.58379" lon="3.50143">
        <ele>59.8</ele>
        <time>2005-01-16T10:02:38Z</time>
      </trkpt>
      <trkpt lat="43.5844" lon="3.50219">
        <ele>60</ele>
        <time>2005-01-16T10:03:39Z</time>
      </trkpt>
      <trkpt lat="43.58497" lon="3.50286">
        <ele>59.4</ele>
        <time>2005-01-16T10:04:39Z</time>
      </trkpt>
      <trkpt lat="43.58536" lon="3.50369">
        <ele>59.3</ele>
        <time>2005-01-16T10:05:40Z</time>
      </trkpt>
      <trkpt lat="43.58559" lon="3.50458">
        <ele>60.1</ele>
        <time>2005-01-16T10:06:40Z</time>
      </trkpt>
      <trkpt lat="43.58573" lon="3.50556">
        <ele>61.1</ele>
        <time>2005-01-16T10:07:41Z</time>
      </trkpt>
      <trkpt lat="43.58593" lon="3.50659">
        <ele>64.3</ele>
        <time>2005-01-16T10:08:43Z</time>
      </trkpt>
      <trkpt lat="43.58608" lon="3.50761">
        <ele>64.8</ele>
        <time>2005-01-16T10:09:43Z</time>
      </trkpt>
      <trkpt lat="43.58611" lon="3.50855">
        <ele>68.6</ele>
        <time>2005-01-16T10:10:43Z</time>
      </trkpt>
      <trkpt lat="43.5863" lon="3.50858">
        <ele>70.6</ele>
        <time>2005-01-16T10:11:43Z</time>
      </trkpt>
      <trkpt lat="43.58707" lon="3.50839">
        <ele>67.1</ele>
        <time>2005-01-16T10:12:45Z</time>
      </trkpt>
      <trkpt lat="43.58782" lon="3.5085">
        <ele>67.4</ele>
        <time>2005-01-16T10:13:45Z</time>
      </trkpt>
      <trkpt lat="43.5885" lon="3.50877">
        <ele>67.5</ele>
        <time>2005-01-16T10:14:45Z</time>
      </trkpt>
      <trkpt lat="43.58872" lon="3.50892">
        <ele>67.6</ele>
        <time>2005-01-16T10:15:46Z</time>
      </trkpt>
      <trkpt lat="43.58845" lon="3.50935">
        <ele>73.2</ele>
        <time>2005-01-16T10:16:46Z</time>
      </trkpt>
      <trkpt lat="43.58802" lon="3.50963">
        <ele>78.8</ele>
        <time>2005-01-16T10:17:46Z</time>
      </trkpt>
      <trkpt lat="43.58753" lon="3.50952">
        <ele>79.5</ele>
        <time>2005-01-16T10:18:48Z</time>
      </trkpt>
      <trkpt lat="43.58697" lon="3.50921">
        <ele>79.5</ele>
        <time>2005-01-16T10:19:49Z</time>
      </trkpt>
      <trkpt lat="43.58695" lon="3.50929">
        <ele>81.7</ele>
        <time>2005-01-16T10:20:50Z</time>
      </trkpt>
      <trkpt lat="43.58702" lon="3.50942">
        <ele>83.4</ele>
        <time>2005-01-16T10:21:50Z</time>
      </trkpt>
      <trkpt lat="43.58703" lon="3.50942">
        <ele>83.3</ele>
        <time>2005-01-16T10:22:51Z</time>
      </trkpt>
      <trkpt lat="43.58699" lon="3.50941">
        <ele>83.6</ele>
        <time>2005-01-16T10:23:51Z</time>
      </trkpt>
      <trkpt lat="43.58701" lon="3.50943">
        <ele>83.7</ele>
        <time>2005-01-16T10:24:52Z</time>
      </trkpt>
      <trkpt lat="43.58708" lon="3.50964">
        <ele>88.8</ele>
        <time>2005-01-16T10:25:52Z</time>
      </trkpt>
      <trkpt lat="43.58692" lon="3.50968">
        <ele>94</ele>
        <time>2005-01-16T10:26:52Z</time>
      </trkpt>
      <trkpt lat="43.58678" lon="3.50975">
        <ele>98</ele>
        <time>2005-01-16T10:27:53Z</time>
      </trkpt>
      <trkpt lat="43.58659" lon="3.51005">
        <ele>105</ele>
        <time>2005-01-16T10:28:54Z</time>
      </trkpt>
      <trkpt lat="43.58658" lon="3.51007">
        <ele>104.7</ele>
        <time>2005-01-16T10:29:55Z</time>
      </trkpt>
      <trkpt lat="43.58656" lon="3.51007">
        <ele>104.4</ele>
        <time>2005-01-16T10:30:55Z</time>
      </trkpt>
      <trkpt lat="43.58657" lon="3.51004">
        <ele>104.9</ele>
        <time>2005-01-16T10:31:56Z</time>
      </trkpt>
      <trkpt lat="43.58667" lon="3.50994">
        <ele>104.5</ele>
        <time>2005-01-16T10:32:56Z</time>
      </trkpt>
      <trkpt lat="43.58657" lon="3.51004">
        <ele>104.8</ele>
        <time>2005-01-16T10:33:56Z</time>
      </trkpt>
      <trkpt lat="43.58658" lon="3.51006">
        <ele>104.8</ele>
        <time>2005-01-16T10:34:56Z</time>
      </trkpt>
      <trkpt lat="43.58659" lon="3.51006">
        <ele>104.8</ele>
        <time>2005-01-16T10:35:57Z</time>
      </trkpt>
      <trkpt lat="43.58657" lon="3.51003">
        <ele>104.9</ele>
        <time>2005-01-16T10:36:58Z</time>
      </trkpt>
      <trkpt lat="43.58656" lon="3.51005">
        <ele>104.6</ele>
        <time>2005-01-16T10:37:59Z</time>
      </trkpt>
      <trkpt lat="43.58655" lon="3.51003">
        <ele>104.8</ele>
        <time>2005-01-16T10:39:00Z</time>
      </trkpt>
      <trkpt lat="43.58655" lon="3.51004">
        <ele>104.7</ele>
        <time>2005-01-16T10:40:00Z</time>
      </trkpt>
      <trkpt lat="43.58655" lon="3.51005">
        <ele>104.5</ele>
        <time>2005-01-16T10:41:01Z</time>
      </trkpt>
      <trkpt lat="43.58655" lon="3.51005">
        <ele>104.5</ele>
        <time>2005-01-16T10:42:02Z</time>
      </trkpt>
      <trkpt lat="43.58656" lon="3.51004">
        <ele>104.8</ele>
        <time>2005-01-16T10:43:02Z</time>
      </trkpt>
      <trkpt lat="43.58657" lon="3.51001">
        <ele>105.2</ele>
        <time>2005-01-16T10:44:03Z</time>
      </trkpt>
      <trkpt lat="43.5866" lon="3.51">
        <ele>105.5</ele>
        <time>2005-01-16T10:45:03Z</time>
      </trkpt>
      <trkpt lat="43.58696" lon="3.51031">
        <ele>100.7</ele>
        <time>2005-01-16T10:46:04Z</time>
      </trkpt>
      <trkpt lat="43.58744" lon="3.51071">
        <ele>102.8</ele>
        <time>2005-01-16T10:47:05Z</time>
      </trkpt>
      <trkpt lat="43.58759" lon="3.5111">
        <ele>110.2</ele>
        <time>2005-01-16T10:48:05Z</time>
      </trkpt>
      <trkpt lat="43.58761" lon="3.51124">
        <ele>111.9</ele>
        <time>2005-01-16T10:49:07Z</time>
      </trkpt>
      <trkpt lat="43.58776" lon="3.51151">
        <ele>116.1</ele>
        <time>2005-01-16T10:50:07Z</time>
      </trkpt>
      <trkpt lat="43.58785" lon="3.5117">
        <ele>117.9</ele>
        <time>2005-01-16T10:51:08Z</time>
      </trkpt>
      <trkpt lat="43.58783" lon="3.51222">
        <ele>122</ele>
        <time>2005-01-16T10:52:08Z</time>
      </trkpt>
      <trkpt lat="43.58782" lon="3.51285">
        <ele>118.6</ele>
        <time>2005-01-16T10:53:09Z</time>
      </trkpt>
      <trkpt lat="43.58781" lon="3.51295">
        <ele>117.3</ele>
        <time>2005-01-16T10:54:10Z</time>
      </trkpt>
      <trkpt lat="43.58828" lon="3.51286">
        <ele>114.8</ele>
        <time>2005-01-16T10:55:10Z</time>
      </trkpt>
      <trkpt lat="43.58843" lon="3.5136">
        <ele>111.5</ele>
        <time>2005-01-16T10:56:11Z</time>
      </trkpt>
      <trkpt lat="43.58868" lon="3.51416">
        <ele>115.4</ele>
        <time>2005-01-16T10:57:12Z</time>
      </trkpt>
      <trkpt lat="43.58897" lon="3.51465">
        <ele>116.9</ele>
        <time>2005-01-16T10:58:12Z</time>
      </trkpt>
      <trkpt lat="43.58901" lon="3.51544">
        <ele>115.4</ele>
        <time>2005-01-16T10:59:12Z</time>
      </trkpt>
      <trkpt lat="43.58878" lon="3.51597">
        <ele>118.5</ele>
        <time>2005-01-16T11:00:12Z</time>
      </trkpt>
      <trkpt lat="43.58849" lon="3.51671">
        <ele>117.6</ele>
        <time>2005-01-16T11:01:12Z</time>
      </trkpt>
      <trkpt lat="43.58827" lon="3.51718">
        <ele>119.2</ele>
        <time>2005-01-16T11:02:13Z</time>
      </trkpt>
      <trkpt lat="43.58824" lon="3.51787">
        <ele>121.9</ele>
        <time>2005-01-16T11:03:13Z</time>
      </trkpt>
      <trkpt lat="43.58827" lon="3.51842">
        <ele>125.8</ele>
        <time>2005-01-16T11:04:13Z</time>
      </trkpt>
      <trkpt lat="43.58843" lon="3.51885">
        <ele>128.7</ele>
        <time>2005-01-16T11:05:14Z</time>
      </trkpt>
      <trkpt lat="43.58826" lon="3.51933">
        <ele>129</ele>
        <time>2005-01-16T11:06:15Z</time>
      </trkpt>
      <trkpt lat="43.58864" lon="3.5198">
        <ele>129.2</ele>
        <time>2005-01-16T11:07:17Z</time>
      </trkpt>
      <trkpt lat="43.58909" lon="3.52032">
        <ele>121.3</ele>
        <time>2005-01-16T11:08:17Z</time>
      </trkpt>
      <trkpt lat="43.58929" lon="3.52072">
        <ele>115.9</ele>
        <time>2005-01-16T11:09:18Z</time>
      </trkpt>
      <trkpt lat="43.58932" lon="3.52069">
        <ele>115.5</ele>
        <time>2005-01-16T11:10:18Z</time>
      </trkpt>
      <trkpt lat="43.58921" lon="3.52081">
        <ele>116.1</ele>
        <time>2005-01-16T11:11:19Z</time>
      </trkpt>
      <trkpt lat="43.58943" lon="3.5215">
        <ele>119.5</ele>
        <time>2005-01-16T11:12:19Z</time>
      </trkpt>
      <trkpt lat="43.58972" lon="3.5216">
        <ele>125</ele>
        <time>2005-01-16T11:13:20Z</time>
      </trkpt>
      <trkpt lat="43.59012" lon="3.52209">
        <ele>132.9</ele>
        <time>2005-01-16T11:14:21Z</time>
      </trkpt>
      <trkpt lat="43.59047" lon="3.52243">
        <ele>133.5</ele>
        <time>2005-01-16T11:15:20Z</time>
      </trkpt>
      <trkpt lat="43.59093" lon="3.52278">
        <ele>125</ele>
        <time>2005-01-16T11:16:21Z</time>
      </trkpt>
      <trkpt lat="43.59141" lon="3.52281">
        <ele>117.4</ele>
        <time>2005-01-16T11:17:22Z</time>
      </trkpt>
      <trkpt lat="43.59197" lon="3.52281">
        <ele>109.7</ele>
        <time>2005-01-16T11:18:23Z</time>
      </trkpt>
      <trkpt lat="43.59202" lon="3.52294">
        <ele>109.5</ele>
        <time>2005-01-16T11:19:23Z</time>
      </trkpt>
      <trkpt lat="43.592" lon="3.52298">
        <ele>109.2</ele>
        <time>2005-01-16T11:20:23Z</time>
      </trkpt>
      <trkpt lat="43.592" lon="3.52297">
        <ele>109.2</ele>
        <time>2005-01-16T11:21:24Z</time>
      </trkpt>
      <trkpt lat="43.59238" lon="3.52287">
        <ele>112.4</ele>
        <time>2005-01-16T11:22:25Z</time>
      </trkpt>
      <trkpt lat="43.59219" lon="3.52349">
        <ele>114.4</ele>
        <time>2005-01-16T11:23:25Z</time>
      </trkpt>
      <trkpt lat="43.59244" lon="3.52388">
        <ele>111.4</ele>
        <time>2005-01-16T11:24:26Z</time>
      </trkpt>
      <trkpt lat="43.59262" lon="3.52394">
        <ele>109.3</ele>
        <time>2005-01-16T11:25:26Z</time>
      </trkpt>
      <trkpt lat="43.59249" lon="3.52367">
        <ele>116.5</ele>
        <time>2005-01-16T11:26:26Z</time>
      </trkpt>
      <trkpt lat="43.59273" lon="3.52335">
        <ele>120.6</ele>
        <time>2005-01-16T11:27:26Z</time>
      </trkpt>
      <trkpt lat="43.59262" lon="3.52316">
        <ele>119.4</ele>
        <time>2005-01-16T11:28:27Z</time>
      </trkpt>
      <trkpt lat="43.59252" lon="3.52322">
        <ele>119.8</ele>
        <time>2005-01-16T11:29:58Z</time>
      </trkpt>
      <trkpt lat="43.59252" lon="3.52322">
        <ele>119.8</ele>
        <time>2005-01-16T11:30:59Z</time>
      </trkpt>
      <trkpt lat="43.59264" lon="3.52327">
        <ele>120.5</ele>
        <time>2005-01-16T11:31:59Z</time>
      </trkpt>
      <trkpt lat="43.59264" lon="3.52325">
        <ele>120.3</ele>
        <time>2005-01-16T11:33:00Z</time>
      </trkpt>
      <trkpt lat="43.59277" lon="3.52342">
        <ele>118.4</ele>
        <time>2005-01-16T11:34:01Z</time>
      </trkpt>
      <trkpt lat="43.59291" lon="3.52384">
        <ele>107.9</ele>
        <time>2005-01-16T11:35:01Z</time>
      </trkpt>
      <trkpt lat="43.59311" lon="3.5238">
        <ele>106.3</ele>
        <time>2005-01-16T11:36:01Z</time>
      </trkpt>
      <trkpt lat="43.59323" lon="3.52435">
        <ele>105.3</ele>
        <time>2005-01-16T11:37:02Z</time>
      </trkpt>
      <trkpt lat="43.59314" lon="3.52464">
        <ele>107.2</ele>
        <time>2005-01-16T11:38:03Z</time>
      </trkpt>
      <trkpt lat="43.59366" lon="3.52414">
        <ele>106.7</ele>
        <time>2005-01-16T11:39:03Z</time>
      </trkpt>
      <trkpt lat="43.59401" lon="3.52432">
        <ele>117.8</ele>
        <time>2005-01-16T11:40:04Z</time>
      </trkpt>
      <trkpt lat="43.59409" lon="3.52443">
        <ele>123.7</ele>
        <time>2005-01-16T11:41:05Z</time>
      </trkpt>
      <trkpt lat="43.59376" lon="3.52469">
        <ele>126</ele>
        <time>2005-01-16T11:42:06Z</time>
      </trkpt>
      <trkpt lat="43.59356" lon="3.52486">
        <ele>122.4</ele>
        <time>2005-01-16T11:43:06Z</time>
      </trkpt>
      <trkpt lat="43.59357" lon="3.52492">
        <ele>123.7</ele>
        <time>2005-01-16T11:44:07Z</time>
      </trkpt>
      <trkpt lat="43.59357" lon="3.5249">
        <ele>123.6</ele>
        <time>2005-01-16T11:45:08Z</time>
      </trkpt>
      <trkpt lat="43.59374" lon="3.52473">
        <ele>127</ele>
        <time>2005-01-16T11:46:08Z</time>
      </trkpt>
      <trkpt lat="43.59385" lon="3.52475">
        <ele>131</ele>
        <time>2005-01-16T11:47:10Z</time>
      </trkpt>
      <trkpt lat="43.59387" lon="3.52496">
        <ele>135.5</ele>
        <time>2005-01-16T11:48:10Z</time>
      </trkpt>
      <trkpt lat="43.59418" lon="3.52536">
        <ele>141.8</ele>
        <time>2005-01-16T11:49:10Z</time>
      </trkpt>
      <trkpt lat="43.59423" lon="3.52539">
        <ele>141.9</ele>
        <time>2005-01-16T11:50:11Z</time>
      </trkpt>
      <trkpt lat="43.59468" lon="3.52583">
        <ele>144.7</ele>
        <time>2005-01-16T11:51:09Z</time>
      </trkpt>
      <trkpt lat="43.59529" lon="3.52624">
        <ele>141.5</ele>
        <time>2005-01-16T11:52:11Z</time>
      </trkpt>
      <trkpt lat="43.59582" lon="3.52659">
        <ele>138</ele>
        <time>2005-01-16T11:53:13Z</time>
      </trkpt>
      <trkpt lat="43.59578" lon="3.52655">
        <ele>138.2</ele>
        <time>2005-01-16T11:53:38Z</time>
      </trkpt>
      <trkpt lat="43.5958" lon="3.52658">
        <ele>138.1</ele>
        <time>2005-01-16T12:34:05Z</time>
      </trkpt>
      <trkpt lat="43.59579" lon="3.52655">
        <ele>138.1</ele>
        <time>2005-01-16T12:35:05Z</time>
      </trkpt>
      <trkpt lat="43.59574" lon="3.52648">
        <ele>138.4</ele>
        <time>2005-01-16T12:36:04Z</time>
      </trkpt>
      <trkpt lat="43.59558" lon="3.52647">
        <ele>139.3</ele>
        <time>2005-01-16T12:37:04Z</time>
      </trkpt>
      <trkpt lat="43.59578" lon="3.52651">
        <ele>138.2</ele>
        <time>2005-01-16T12:38:06Z</time>
      </trkpt>
      <trkpt lat="43.59581" lon="3.52652">
        <ele>138.1</ele>
        <time>2005-01-16T12:39:06Z</time>
      </trkpt>
      <trkpt lat="43.59581" lon="3.52653">
        <ele>138.1</ele>
        <time>2005-01-16T12:40:07Z</time>
      </trkpt>
      <trkpt lat="43.596" lon="3.52704">
        <ele>133.6</ele>
        <time>2005-01-16T12:41:08Z</time>
      </trkpt>
      <trkpt lat="43.59651" lon="3.52753">
        <ele>140.6</ele>
        <time>2005-01-16T12:42:08Z</time>
      </trkpt>
      <trkpt lat="43.59654" lon="3.52768">
        <ele>141.6</ele>
        <time>2005-01-16T12:43:09Z</time>
      </trkpt>
      <trkpt lat="43.59688" lon="3.52811">
        <ele>142.2</ele>
        <time>2005-01-16T12:44:07Z</time>
      </trkpt>
      <trkpt lat="43.59746" lon="3.52817">
        <ele>140.7</ele>
        <time>2005-01-16T12:45:10Z</time>
      </trkpt>
      <trkpt lat="43.59798" lon="3.52847">
        <ele>137.6</ele>
        <time>2005-01-16T12:46:11Z</time>
      </trkpt>
      <trkpt lat="43.59801" lon="3.52849">
        <ele>137.6</ele>
        <time>2005-01-16T12:47:12Z</time>
      </trkpt>
      <trkpt lat="43.59829" lon="3.52819">
        <ele>135.2</ele>
        <time>2005-01-16T12:48:12Z</time>
      </trkpt>
      <trkpt lat="43.59894" lon="3.52831">
        <ele>129.7</ele>
        <time>2005-01-16T12:49:11Z</time>
      </trkpt>
      <trkpt lat="43.59918" lon="3.52856">
        <ele>129.9</ele>
        <time>2005-01-16T12:50:14Z</time>
      </trkpt>
      <trkpt lat="43.59973" lon="3.52922">
        <ele>129.2</ele>
        <time>2005-01-16T12:51:15Z</time>
      </trkpt>
      <trkpt lat="43.60024" lon="3.53003">
        <ele>133.3</ele>
        <time>2005-01-16T12:52:15Z</time>
      </trkpt>
      <trkpt lat="43.60041" lon="3.5307">
        <ele>138.9</ele>
        <time>2005-01-16T12:53:15Z</time>
      </trkpt>
      <trkpt lat="43.60052" lon="3.53164">
        <ele>143.2</ele>
        <time>2005-01-16T12:54:15Z</time>
      </trkpt>
      <trkpt lat="43.60055" lon="3.53207">
        <ele>147.4</ele>
        <time>2005-01-16T12:55:17Z</time>
      </trkpt>
      <trkpt lat="43.60057" lon="3.532">
        <ele>145.8</ele>
        <time>2005-01-16T12:56:17Z</time>
      </trkpt>
      <trkpt lat="43.60051" lon="3.53179">
        <ele>144.8</ele>
        <time>2005-01-16T12:57:18Z</time>
      </trkpt>
      <trkpt lat="43.60031" lon="3.53173">
        <ele>150.9</ele>
        <time>2005-01-16T12:58:19Z</time>
      </trkpt>
      <trkpt lat="43.60015" lon="3.53234">
        <ele>154</ele>
        <time>2005-01-16T12:59:19Z</time>
      </trkpt>
      <trkpt lat="43.60002" lon="3.53224">
        <ele>155.7</ele>
        <time>2005-01-16T13:00:20Z</time>
      </trkpt>
      <trkpt lat="43.59965" lon="3.53156">
        <ele>158.8</ele>
        <time>2005-01-16T13:01:20Z</time>
      </trkpt>
      <trkpt lat="43.59948" lon="3.53105">
        <ele>156.3</ele>
        <time>2005-01-16T13:02:21Z</time>
      </trkpt>
      <trkpt lat="43.59929" lon="3.53014">
        <ele>151.7</ele>
        <time>2005-01-16T13:03:21Z</time>
      </trkpt>
      <trkpt lat="43.59893" lon="3.52956">
        <ele>146</ele>
        <time>2005-01-16T13:04:22Z</time>
      </trkpt>
      <trkpt lat="43.59892" lon="3.52957">
        <ele>145.9</ele>
        <time>2005-01-16T13:05:22Z</time>
      </trkpt>
      <trkpt lat="43.59861" lon="3.52898">
        <ele>143.7</ele>
        <time>2005-01-16T13:06:21Z</time>
      </trkpt>
      <trkpt lat="43.59799" lon="3.52853">
        <ele>137.7</ele>
        <time>2005-01-16T13:07:23Z</time>
      </trkpt>
      <trkpt lat="43.59747" lon="3.52881">
        <ele>132.6</ele>
        <time>2005-01-16T13:08:23Z</time>
      </trkpt>
      <trkpt lat="43.59681" lon="3.52901">
        <ele>129.3</ele>
        <time>2005-01-16T13:09:24Z</time>
      </trkpt>
      <trkpt lat="43.59644" lon="3.52912">
        <ele>126.7</ele>
        <time>2005-01-16T13:10:24Z</time>
      </trkpt>
      <trkpt lat="43.59591" lon="3.52885">
        <ele>126.7</ele>
        <time>2005-01-16T13:11:24Z</time>
      </trkpt>
      <trkpt lat="43.59581" lon="3.52871">
        <ele>126.3</ele>
        <time>2005-01-16T13:12:25Z</time>
      </trkpt>
      <trkpt lat="43.5961" lon="3.52893">
        <ele>127.6</ele>
        <time>2005-01-16T13:13:26Z</time>
      </trkpt>
      <trkpt lat="43.59639" lon="3.5283">
        <ele>137.4</ele>
        <time>2005-01-16T13:14:27Z</time>
      </trkpt>
      <trkpt lat="43.59644" lon="3.52765">
        <ele>140.8</ele>
        <time>2005-01-16T13:15:28Z</time>
      </trkpt>
      <trkpt lat="43.59608" lon="3.52721">
        <ele>133.7</ele>
        <time>2005-01-16T13:16:28Z</time>
      </trkpt>
      <trkpt lat="43.59581" lon="3.52661">
        <ele>138</ele>
        <time>2005-01-16T13:17:28Z</time>
      </trkpt>
      <trkpt lat="43.59542" lon="3.5265">
        <ele>139.2</ele>
        <time>2005-01-16T13:18:29Z</time>
      </trkpt>
      <trkpt lat="43.59541" lon="3.52653">
        <ele>139</ele>
        <time>2005-01-16T13:19:29Z</time>
      </trkpt>
      <trkpt lat="43.5954" lon="3.52654">
        <ele>138.9</ele>
        <time>2005-01-16T13:20:29Z</time>
      </trkpt>
      <trkpt lat="43.5947" lon="3.52658">
        <ele>138.8</ele>
        <time>2005-01-16T13:21:30Z</time>
      </trkpt>
      <trkpt lat="43.59429" lon="3.52678">
        <ele>134.9</ele>
        <time>2005-01-16T13:22:30Z</time>
      </trkpt>
      <trkpt lat="43.59422" lon="3.52647">
        <ele>135.7</ele>
        <time>2005-01-16T13:23:30Z</time>
      </trkpt>
      <trkpt lat="43.59422" lon="3.52646">
        <ele>135.7</ele>
        <time>2005-01-16T13:24:31Z</time>
      </trkpt>
      <trkpt lat="43.59421" lon="3.52648">
        <ele>135.5</ele>
        <time>2005-01-16T13:25:31Z</time>
      </trkpt>
      <trkpt lat="43.59421" lon="3.52646">
        <ele>135.6</ele>
        <time>2005-01-16T13:26:32Z</time>
      </trkpt>
      <trkpt lat="43.5942" lon="3.52645">
        <ele>135.4</ele>
        <time>2005-01-16T13:27:32Z</time>
      </trkpt>
      <trkpt lat="43.59421" lon="3.52646">
        <ele>135.5</ele>
        <time>2005-01-16T13:28:33Z</time>
      </trkpt>
      <trkpt lat="43.59408" lon="3.52618">
        <ele>136.6</ele>
        <time>2005-01-16T13:29:33Z</time>
      </trkpt>
      <trkpt lat="43.59377" lon="3.52557">
        <ele>132.4</ele>
        <time>2005-01-16T13:30:33Z</time>
      </trkpt>
      <trkpt lat="43.59363" lon="3.52476">
        <ele>123.2</ele>
        <time>2005-01-16T13:31:34Z</time>
      </trkpt>
      <trkpt lat="43.59404" lon="3.52439">
        <ele>121.3</ele>
        <time>2005-01-16T13:32:34Z</time>
      </trkpt>
      <trkpt lat="43.59407" lon="3.52429">
        <ele>117.3</ele>
        <time>2005-01-16T13:33:34Z</time>
      </trkpt>
      <trkpt lat="43.59343" lon="3.52434">
        <ele>107.2</ele>
        <time>2005-01-16T13:34:34Z</time>
      </trkpt>
      <trkpt lat="43.59313" lon="3.52439">
        <ele>105.3</ele>
        <time>2005-01-16T13:35:35Z</time>
      </trkpt>
      <trkpt lat="43.59323" lon="3.52368">
        <ele>104.6</ele>
        <time>2005-01-16T13:36:36Z</time>
      </trkpt>
      <trkpt lat="43.59315" lon="3.52281">
        <ele>102.9</ele>
        <time>2005-01-16T13:37:37Z</time>
      </trkpt>
      <trkpt lat="43.59255" lon="3.52252">
        <ele>105.3</ele>
        <time>2005-01-16T13:38:37Z</time>
      </trkpt>
      <trkpt lat="43.59203" lon="3.5225">
        <ele>107.7</ele>
        <time>2005-01-16T13:39:38Z</time>
      </trkpt>
      <trkpt lat="43.59171" lon="3.52196">
        <ele>113.5</ele>
        <time>2005-01-16T13:40:39Z</time>
      </trkpt>
      <trkpt lat="43.59107" lon="3.52136">
        <ele>116.3</ele>
        <time>2005-01-16T13:41:40Z</time>
      </trkpt>
      <trkpt lat="43.59034" lon="3.5211">
        <ele>116.3</ele>
        <time>2005-01-16T13:42:40Z</time>
      </trkpt>
      <trkpt lat="43.58961" lon="3.5209">
        <ele>115.2</ele>
        <time>2005-01-16T13:43:41Z</time>
      </trkpt>
      <trkpt lat="43.58927" lon="3.5205">
        <ele>116.9</ele>
        <time>2005-01-16T13:44:42Z</time>
      </trkpt>
      <trkpt lat="43.58935" lon="3.51961">
        <ele>112</ele>
        <time>2005-01-16T13:45:42Z</time>
      </trkpt>
      <trkpt lat="43.589" lon="3.51875">
        <ele>114.4</ele>
        <time>2005-01-16T13:46:43Z</time>
      </trkpt>
      <trkpt lat="43.5887" lon="3.51794">
        <ele>112.8</ele>
        <time>2005-01-16T13:47:43Z</time>
      </trkpt>
      <trkpt lat="43.58869" lon="3.51705">
        <ele>109.6</ele>
        <time>2005-01-16T13:48:43Z</time>
      </trkpt>
      <trkpt lat="43.58905" lon="3.51619">
        <ele>108.4</ele>
        <time>2005-01-16T13:49:44Z</time>
      </trkpt>
      <trkpt lat="43.58929" lon="3.51527">
        <ele>107.2</ele>
        <time>2005-01-16T13:50:45Z</time>
      </trkpt>
      <trkpt lat="43.58931" lon="3.51512">
        <ele>106.7</ele>
        <time>2005-01-16T13:51:45Z</time>
      </trkpt>
      <trkpt lat="43.58931" lon="3.51514">
        <ele>106.6</ele>
        <time>2005-01-16T13:52:45Z</time>
      </trkpt>
      <trkpt lat="43.58938" lon="3.51453">
        <ele>102.6</ele>
        <time>2005-01-16T13:53:46Z</time>
      </trkpt>
      <trkpt lat="43.58896" lon="3.51376">
        <ele>102.4</ele>
        <time>2005-01-16T13:54:46Z</time>
      </trkpt>
      <trkpt lat="43.58868" lon="3.51299">
        <ele>104.3</ele>
        <time>2005-01-16T13:55:46Z</time>
      </trkpt>
      <trkpt lat="43.58889" lon="3.51204">
        <ele>103</ele>
        <time>2005-01-16T13:56:47Z</time>
      </trkpt>
      <trkpt lat="43.58864" lon="3.51126">
        <ele>101.3</ele>
        <time>2005-01-16T13:57:47Z</time>
      </trkpt>
      <trkpt lat="43.58828" lon="3.51075">
        <ele>96.1</ele>
        <time>2005-01-16T13:58:48Z</time>
      </trkpt>
      <trkpt lat="43.58778" lon="3.51019">
        <ele>91.4</ele>
        <time>2005-01-16T13:59:48Z</time>
      </trkpt>
      <trkpt lat="43.58788" lon="3.50999">
        <ele>86.4</ele>
        <time>2005-01-16T14:00:48Z</time>
      </trkpt>
      <trkpt lat="43.58804" lon="3.50982">
        <ele>82.1</ele>
        <time>2005-01-16T14:01:49Z</time>
      </trkpt>
      <trkpt lat="43.58806" lon="3.50965">
        <ele>79.3</ele>
        <time>2005-01-16T14:02:50Z</time>
      </trkpt>
      <trkpt lat="43.58803" lon="3.50965">
        <ele>79.3</ele>
        <time>2005-01-16T14:03:50Z</time>
      </trkpt>
      <trkpt lat="43.58808" lon="3.50964">
        <ele>78.6</ele>
        <time>2005-01-16T14:04:51Z</time>
      </trkpt>
      <trkpt lat="43.58858" lon="3.50899">
        <ele>69.5</ele>
        <time>2005-01-16T14:05:51Z</time>
      </trkpt>
      <trkpt lat="43.58854" lon="3.5088">
        <ele>67.4</ele>
        <time>2005-01-16T14:06:51Z</time>
      </trkpt>
      <trkpt lat="43.58789" lon="3.50854">
        <ele>67.6</ele>
        <time>2005-01-16T14:07:51Z</time>
      </trkpt>
      <trkpt lat="43.58717" lon="3.50844">
        <ele>68</ele>
        <time>2005-01-16T14:08:52Z</time>
      </trkpt>
      <trkpt lat="43.5864" lon="3.50855">
        <ele>71</ele>
        <time>2005-01-16T14:09:52Z</time>
      </trkpt>
      <trkpt lat="43.58579" lon="3.50908">
        <ele>71.9</ele>
        <time>2005-01-16T14:10:52Z</time>
      </trkpt>
      <trkpt lat="43.58567" lon="3.50911">
        <ele>71.7</ele>
        <time>2005-01-16T14:11:52Z</time>
      </trkpt>
      <trkpt lat="43.58522" lon="3.50943">
        <ele>72.8</ele>
        <time>2005-01-16T14:12:53Z</time>
      </trkpt>
      <trkpt lat="43.58507" lon="3.5094">
        <ele>72.6</ele>
        <time>2005-01-16T14:13:54Z</time>
      </trkpt>
      <trkpt lat="43.58504" lon="3.50938">
        <ele>72.7</ele>
        <time>2005-01-16T14:14:55Z</time>
      </trkpt>
      <trkpt lat="43.58481" lon="3.50919">
        <ele>76.2</ele>
        <time>2005-01-16T14:15:56Z</time>
      </trkpt>
      <trkpt lat="43.58471" lon="3.50918">
        <ele>76.9</ele>
        <time>2005-01-16T14:16:56Z</time>
      </trkpt>
      <trkpt lat="43.58405" lon="3.50888">
        <ele>77.2</ele>
        <time>2005-01-16T14:17:57Z</time>
      </trkpt>
      <trkpt lat="43.58382" lon="3.50848">
        <ele>78</ele>
        <time>2005-01-16T14:18:57Z</time>
      </trkpt>
      <trkpt lat="43.58354" lon="3.50819">
        <ele>77</ele>
        <time>2005-01-16T14:19:58Z</time>
      </trkpt>
      <trkpt lat="43.58318" lon="3.50792">
        <ele>77</ele>
        <time>2005-01-16T14:20:58Z</time>
      </trkpt>
      <trkpt lat="43.58335" lon="3.5079">
        <ele>77.8</ele>
        <time>2005-01-16T14:21:59Z</time>
      </trkpt>
      <trkpt lat="43.58343" lon="3.50721">
        <ele>86.5</ele>
        <time>2005-01-16T14:23:00Z</time>
      </trkpt>
      <trkpt lat="43.58361" lon="3.50702">
        <ele>89.2</ele>
        <time>2005-01-16T14:24:00Z</time>
      </trkpt>
      <trkpt lat="43.58401" lon="3.50698">
        <ele>92.4</ele>
        <time>2005-01-16T14:25:01Z</time>
      </trkpt>
      <trkpt lat="43.58391" lon="3.50673">
        <ele>91.7</ele>
        <time>2005-01-16T14:26:02Z</time>
      </trkpt>
      <trkpt lat="43.58393" lon="3.50673">
        <ele>91.6</ele>
        <time>2005-01-16T14:27:02Z</time>
      </trkpt>
      <trkpt lat="43.58394" lon="3.50677">
        <ele>91.6</ele>
        <time>2005-01-16T14:28:03Z</time>
      </trkpt>
      <trkpt lat="43.58393" lon="3.50677">
        <ele>91.6</ele>
        <time>2005-01-16T14:29:04Z</time>
      </trkpt>
      <trkpt lat="43.58393" lon="3.50677">
        <ele>91.6</ele>
        <time>2005-01-16T14:30:04Z</time>
      </trkpt>
      <trkpt lat="43.58392" lon="3.50676">
        <ele>91.6</ele>
        <time>2005-01-16T14:31:04Z</time>
      </trkpt>
      <trkpt lat="43.58391" lon="3.50673">
        <ele>91.7</ele>
        <time>2005-01-16T14:32:04Z</time>
      </trkpt>
      <trkpt lat="43.58351" lon="3.5065">
        <ele>95.7</ele>
        <time>2005-01-16T14:33:05Z</time>
      </trkpt>
      <trkpt lat="43.58306" lon="3.50624">
        <ele>98.1</ele>
        <time>2005-01-16T14:34:05Z</time>
      </trkpt>
      <trkpt lat="43.58302" lon="3.50597">
        <ele>100</ele>
        <time>2005-01-16T14:35:06Z</time>
      </trkpt>
      <trkpt lat="43.58303" lon="3.50597">
        <ele>100.1</ele>
        <time>2005-01-16T14:36:06Z</time>
      </trkpt>
      <trkpt lat="43.58291" lon="3.50542">
        <ele>102.5</ele>
        <time>2005-01-16T14:37:07Z</time>
      </trkpt>
      <trkpt lat="43.58268" lon="3.50471">
        <ele>105.5</ele>
        <time>2005-01-16T14:38:08Z</time>
      </trkpt>
      <trkpt lat="43.58209" lon="3.50419">
        <ele>100.4</ele>
        <time>2005-01-16T14:39:08Z</time>
      </trkpt>
      <trkpt lat="43.58172" lon="3.50351">
        <ele>105.5</ele>
        <time>2005-01-16T14:40:09Z</time>
      </trkpt>
      <trkpt lat="43.58123" lon="3.50335">
        <ele>108.4</ele>
        <time>2005-01-16T14:41:09Z</time>
      </trkpt>
      <trkpt lat="43.58056" lon="3.50319">
        <ele>106.5</ele>
        <time>2005-01-16T14:42:09Z</time>
      </trkpt>
      <trkpt lat="43.57994" lon="3.50298">
        <ele>100.8</ele>
        <time>2005-01-16T14:43:10Z</time>
      </trkpt>
      <trkpt lat="43.57934" lon="3.50284">
        <ele>95.2</ele>
        <time>2005-01-16T14:44:11Z</time>
      </trkpt>
      <trkpt lat="43.57885" lon="3.50237">
        <ele>89.5</ele>
        <time>2005-01-16T14:45:12Z</time>
      </trkpt>
      <trkpt lat="43.57862" lon="3.50233">
        <ele>89.2</ele>
        <time>2005-01-16T14:46:12Z</time>
      </trkpt>
      <trkpt lat="43.5784" lon="3.50181">
        <ele>92</ele>
        <time>2005-01-16T14:47:13Z</time>
      </trkpt>
      <trkpt lat="43.57846" lon="3.50102">
        <ele>97.9</ele>
        <time>2005-01-16T14:48:13Z</time>
      </trkpt>
      <trkpt lat="43.57811" lon="3.50023">
        <ele>100</ele>
        <time>2005-01-16T14:49:13Z</time>
      </trkpt>
      <trkpt lat="43.57753" lon="3.4997">
        <ele>93.8</ele>
        <time>2005-01-16T14:50:14Z</time>
      </trkpt>
      <trkpt lat="43.57687" lon="3.49948">
        <ele>90.5</ele>
        <time>2005-01-16T14:51:15Z</time>
      </trkpt>
      <trkpt lat="43.57622" lon="3.49905">
        <ele>93.6</ele>
        <time>2005-01-16T14:52:16Z</time>
      </trkpt>
      <trkpt lat="43.57575" lon="3.49856">
        <ele>92.2</ele>
        <time>2005-01-16T14:53:16Z</time>
      </trkpt>
      <trkpt lat="43.57546" lon="3.498">
        <ele>86.3</ele>
        <time>2005-01-16T14:54:17Z</time>
      </trkpt>
      <trkpt lat="43.57545" lon="3.49799">
        <ele>86.2</ele>
        <time>2005-01-16T14:55:18Z</time>
      </trkpt>
      <trkpt lat="43.57546" lon="3.49798">
        <ele>86.1</ele>
        <time>2005-01-16T14:56:18Z</time>
      </trkpt>
      <trkpt lat="43.57546" lon="3.49797">
        <ele>86</ele>
        <time>2005-01-16T14:57:19Z</time>
      </trkpt>
      <trkpt lat="43.57526" lon="3.49796">
        <ele>85.3</ele>
        <time>2005-01-16T14:58:20Z</time>
      </trkpt>
      <trkpt lat="43.57474" lon="3.49742">
        <ele>84.8</ele>
        <time>2005-01-16T14:59:20Z</time>
      </trkpt>
      <trkpt lat="43.57433" lon="3.49679">
        <ele>86.4</ele>
        <time>2005-01-16T15:00:20Z</time>
      </trkpt>
      <trkpt lat="43.57432" lon="3.49623">
        <ele>85.7</ele>
        <time>2005-01-16T15:01:20Z</time>
      </trkpt>
      <trkpt lat="43.57421" lon="3.4961">
        <ele>86.8</ele>
        <time>2005-01-16T15:01:58Z</time>
      </trkpt>
    </trkseg>
  </trk>
</gpx>